createdAt,value
2023-05-07T00:05:12.841Z,7.9
2023-05-07T00:11:05.697Z,9.3
2023-05-07T00:16:58.147Z,8.7
2023-05-07T00:22:50.477Z,6.9
2023-05-07T00:28:41.718Z,10.1
2023-05-07T00:34:33.286Z,10.1
2023-05-07T00:40:25.473Z,9.4
2023-05-07T00:46:17.621Z,8.3
2023-05-07T00:52:09.876Z,12
2023-05-07T00:58:02.123Z,9.6
2023-05-07T01:03:55.789Z,15
2023-05-07T01:09:48.576Z,8.7
2023-05-07T01:15:40.284Z,9.4
2023-05-07T01:21:33.441Z,9.8
2023-05-07T01:27:25.601Z,8.5
2023-05-07T01:33:17.136Z,9.2
2023-05-07T01:39:09.945Z,7.7
2023-05-07T01:45:01.605Z,10.3
2023-05-07T01:50:54.165Z,9.8
2023-05-07T01:56:45.695Z,12.2
2023-05-07T02:02:38.395Z,15.7
2023-05-07T02:08:30.419Z,17
2023-05-07T02:14:22.191Z,19
2023-05-07T02:20:15.466Z,12.3
2023-05-07T02:26:05.913Z,19.9
2023-05-07T02:31:55.093Z,19.8
2023-05-07T02:37:47.770Z,17.4
2023-05-07T02:43:39.759Z,19.2
2023-05-07T02:49:31.906Z,12.8
2023-05-07T02:55:23.770Z,13.2
2023-05-07T03:01:16.231Z,14.6
2023-05-07T03:07:07.757Z,15.8
2023-05-07T03:13:00.890Z,15.4
2023-05-07T03:18:53.257Z,12.3
2023-05-07T03:24:44.751Z,14.1
2023-05-07T03:30:36.209Z,12.2
2023-05-07T03:36:29.700Z,13.1
2023-05-07T03:42:22.926Z,10.9
2023-05-07T03:48:15.999Z,12.6
2023-05-07T03:54:07.244Z,13.1
2023-05-07T03:59:59.939Z,14.3
2023-05-07T04:05:51.617Z,15.2
2023-05-07T04:11:43.800Z,16.2
2023-05-07T04:17:36.488Z,16.7
2023-05-07T04:23:28.387Z,14.7
2023-05-07T04:29:20.517Z,16.5
2023-05-07T04:35:12.520Z,16.7
2023-05-07T04:41:04.373Z,17.3
2023-05-07T04:46:56.692Z,20.2
2023-05-07T04:52:49.274Z,16.7
2023-05-07T04:58:42.572Z,19.9
2023-05-07T05:04:34.437Z,24.7
2023-05-07T05:10:28.991Z,24.9
2023-05-07T05:16:20.563Z,23.2
2023-05-07T05:22:12.630Z,24.8
2023-05-07T05:28:04.537Z,22.2
2023-05-07T05:33:56.430Z,24.2
2023-05-07T05:39:48.445Z,21.9
2023-05-07T05:45:40.096Z,18.4
2023-05-07T05:51:33.547Z,20.9
2023-05-07T05:57:28.815Z,16
2023-05-07T06:03:21.353Z,12.7
2023-05-07T06:09:15.828Z,12.4
2023-05-07T06:15:07.177Z,15.5
2023-05-07T06:20:59.002Z,11
2023-05-07T06:26:51.377Z,7.2
2023-05-07T06:32:45.141Z,6.2
2023-05-07T06:38:36.791Z,7.8
2023-05-07T06:45:34.896Z,8.1
2023-05-07T06:51:25.481Z,6
2023-05-07T06:57:17.571Z,8.5
2023-05-07T07:03:09.241Z,7.1
2023-05-07T07:08:59.529Z,7.2
2023-05-07T07:14:49.149Z,7.4
2023-05-07T07:20:39.267Z,6.8
2023-05-07T07:26:28.873Z,5.2
2023-05-07T07:32:19.910Z,6.9
2023-05-07T07:38:12.809Z,8.4
2023-05-07T07:44:06.784Z,6
2023-05-07T07:50:01.120Z,6.2
2023-05-07T07:55:54.426Z,7.2
2023-05-07T08:01:49.619Z,6.4
2023-05-07T08:07:44.296Z,6
2023-05-07T08:13:36.761Z,5.8
2023-05-07T08:19:31.281Z,6
2023-05-07T08:25:22.744Z,6.7
2023-05-07T08:31:16.212Z,6
2023-05-07T08:37:10.198Z,5.4
2023-05-07T08:43:03.629Z,5.3
2023-05-07T08:48:57.892Z,6.2
2023-05-07T08:54:50.580Z,4.1
2023-05-07T09:00:42.548Z,4.2
2023-05-07T09:06:34.900Z,5
2023-05-07T09:12:28.077Z,5.4
2023-05-07T09:18:22.646Z,4.7
2023-05-07T09:24:13.475Z,4
2023-05-07T09:30:03.260Z,3.8
2023-05-07T09:35:54.785Z,4.7
2023-05-07T09:41:48.242Z,4.7
2023-05-07T09:47:42.397Z,6.2
2023-05-07T09:53:34.064Z,4.2
2023-05-07T09:59:32.015Z,4.6
2023-05-07T10:05:30.606Z,6.1
2023-05-07T10:11:23.285Z,3.6
2023-05-07T10:17:15.073Z,3.9
2023-05-07T10:23:09.690Z,3.4
2023-05-07T10:29:00.157Z,4.3
2023-05-07T10:34:51.905Z,2.5
2023-05-07T10:40:47.740Z,4.1
2023-05-07T10:46:41.393Z,3.6
2023-05-07T10:52:33.661Z,4.5
2023-05-07T10:58:36.749Z,7.4
2023-05-07T11:04:27.796Z,3
2023-05-07T11:10:19.726Z,3.1
2023-05-07T11:16:12.630Z,3.4
2023-05-07T11:22:04.634Z,2.7
2023-05-07T11:27:59.152Z,3
2023-05-07T11:33:51.380Z,3.4
2023-05-07T11:39:44.725Z,3.2
2023-05-07T11:45:36.758Z,3.8
2023-05-07T11:51:28.046Z,5.7
2023-05-07T11:57:21.523Z,4.3
2023-05-07T12:03:12.987Z,2.6
2023-05-07T12:09:04.363Z,2.5
2023-05-07T12:14:55.453Z,3.9
2023-05-07T12:20:47.583Z,2.8
2023-05-07T12:26:41.196Z,3.5
2023-05-07T12:32:33.221Z,3.4
2023-05-07T12:38:25.363Z,3.8
2023-05-07T12:44:16.816Z,2.4
2023-05-07T12:50:08.724Z,3.1
2023-05-07T12:56:00.882Z,2.3
2023-05-07T13:01:53.033Z,3.3
2023-05-07T13:07:45.382Z,2.6
2023-05-07T13:13:38.238Z,3.5
2023-05-07T13:19:33.291Z,3.9
2023-05-07T13:25:22.753Z,2.4
2023-05-07T13:31:14.874Z,2.9
2023-05-07T13:37:06.448Z,2.5
2023-05-07T13:43:01.480Z,2.8
2023-05-07T13:48:53.066Z,2.8
2023-05-07T13:54:45.043Z,3.2
2023-05-07T14:00:36.695Z,3.6
2023-05-07T14:06:28.740Z,2.2
2023-05-07T14:12:19.673Z,5.1
2023-05-07T14:18:13.905Z,9
2023-05-07T14:24:05.387Z,11.1
2023-05-07T14:29:56.902Z,11
2023-05-07T14:35:48.340Z,7.8
2023-05-07T14:41:40.051Z,9.7
2023-05-07T14:47:32.202Z,9.6
2023-05-07T14:53:22.887Z,7.2
2023-05-07T14:59:14.507Z,7.4
2023-05-07T15:05:04.663Z,5.6
2023-05-07T15:10:56.433Z,4.4
2023-05-07T15:16:48.410Z,7.1
2023-05-07T15:22:42.093Z,8.9
2023-05-07T15:28:34.096Z,14.9
2023-05-07T15:34:25.103Z,13.8
2023-05-07T15:40:16.277Z,6.1
2023-05-07T15:46:11.354Z,3.7
2023-05-07T15:52:01.597Z,11.3
2023-05-07T15:57:53.217Z,11.6
2023-05-07T16:03:46.206Z,10
2023-05-07T16:09:38.402Z,6.1
2023-05-07T16:15:30.697Z,6.3
2023-05-07T16:21:22.512Z,6.4
2023-05-07T16:27:14.083Z,10
2023-05-07T16:33:08.168Z,7.2
2023-05-07T16:39:00.454Z,10.4
2023-05-07T16:44:52.224Z,6.8
2023-05-07T16:50:45.841Z,10
2023-05-07T16:56:41.618Z,9.2
2023-05-07T17:02:33.952Z,10.9
2023-05-07T17:08:29.826Z,10.9
2023-05-07T17:14:23.740Z,10
2023-05-07T17:20:16.125Z,10.9
2023-05-07T17:26:08.073Z,12
2023-05-07T17:31:59.495Z,12.5
2023-05-07T17:37:52.709Z,12.1
2023-05-07T17:43:44.197Z,13.6
2023-05-07T17:49:36.631Z,13.4
2023-05-07T17:55:33.023Z,13.7
2023-05-07T18:01:24.987Z,11.9
2023-05-07T18:07:19.188Z,13.7
2023-05-07T18:13:10.398Z,11.8
2023-05-07T18:19:02.502Z,12.2
2023-05-07T18:24:55.933Z,12.3
2023-05-07T18:30:46.776Z,11.5
2023-05-07T18:36:39.761Z,10.1
2023-05-07T18:42:39.500Z,9.5
2023-05-07T18:48:33.441Z,9.9
2023-05-07T18:54:24.591Z,10.7
2023-05-07T19:00:19.140Z,9.7
2023-05-07T19:06:11.738Z,10.6
2023-05-07T19:12:05.840Z,9.3
2023-05-07T19:17:57.441Z,12.2
2023-05-07T19:23:49.365Z,11.2
2023-05-07T19:29:41.232Z,10.6
2023-05-07T19:35:33.818Z,10.2
2023-05-07T19:41:25.892Z,10.3
2023-05-07T19:47:18.846Z,8.5
2023-05-07T19:53:11.709Z,8.3
2023-05-07T19:59:04.042Z,7.8
2023-05-07T20:04:55.902Z,7.5
2023-05-07T20:10:48.369Z,8.3
2023-05-07T20:16:40.006Z,19.4
2023-05-07T20:22:31.542Z,9.4
2023-05-07T20:28:22.975Z,8.7
2023-05-07T20:34:14.517Z,7.7
2023-05-07T20:40:07.319Z,8.7
2023-05-07T20:45:58.162Z,10.8
2023-05-07T20:51:51.505Z,10.8
2023-05-07T20:57:44.104Z,13.7
2023-05-07T21:03:34.101Z,12
2023-05-07T21:09:25.376Z,10.1
2023-05-07T21:15:17.502Z,11.4
2023-05-07T21:21:07.369Z,9.6
2023-05-07T21:27:01.838Z,10.5
2023-05-07T21:32:54.465Z,12.4
2023-05-07T21:38:46.220Z,11.3
2023-05-07T21:44:37.407Z,10.3
2023-05-07T21:50:30.021Z,10.6
2023-05-07T21:56:21.242Z,10.4
2023-05-07T22:02:13.346Z,11.8
2023-05-07T22:08:05.149Z,12.1
2023-05-07T22:13:56.466Z,10.8
2023-05-07T22:19:47.834Z,10.8
2023-05-07T22:25:39.854Z,11.8
2023-05-07T22:31:31.997Z,10.7
2023-05-07T22:37:28.562Z,8.9
2023-05-07T22:43:20.564Z,9.9
2023-05-07T22:49:11.957Z,11
2023-05-07T22:55:04.071Z,13.2
2023-05-07T23:00:54.076Z,12.9
2023-05-07T23:06:46.395Z,12.1
2023-05-07T23:12:39.034Z,13
2023-05-07T23:18:29.886Z,11.1
2023-05-07T23:24:23.580Z,11.7
2023-05-07T23:30:16.032Z,10.3
2023-05-07T23:36:08.963Z,11.4
2023-05-07T23:41:59.726Z,11.7
2023-05-07T23:47:52.309Z,13.4
2023-05-07T23:53:43.080Z,11.7
2023-05-07T23:59:35.785Z,12.4
